Terminal Aerodrome Forecast
Issued by NWS

Current Version | Previous Version | Text Only | Print | Product List | Glossary Off
Versions: 1 2 3 4 5 6 7 8 9 10 11 12 13 14 15 16 17 18 19 20 21 22 23 24 25

894
FTUS41 KRLX 212326
TAFCKB
TAF
KCKB 212326Z 2200/2224 24007KT P6SM BKN008
     FM220300 28005KT 5SM BR OVC003
     FM221000 33006KT 5SM BR OVC007
     FM221300 33006KT P6SM BKN010
     FM221500 33006KT P6SM SCT020
     FM221700 33006KT P6SM SHRA BKN030=

USA.gov is the U.S. government's official web portal to all federal, state and local government web resources and services.